Time;durP1;ratioP1;P1;durP2;ratioP2;P2;SDS_P1;SDS_P2;PMS_P1;PMS_P2;Temp;Humidity;BMP_temperature;BMP_pressure;BME280_temperature;BME280_humidity;BME280_pressure;Samples;Min_cycle;Max_cycle;Signal;HPM_P1;HPM_P2
2022/03/13 00:00:16;;;;;;;60.78;28.50;;;;;;;0.91;70.17;100919.06;5093299;28;20044;-79
2022/03/13 00:03:05;;;;;;;58.55;28.23;;;;;;;0.92;69.78;100919.94;5089052;28;20084;-81
2022/03/13 00:05:35;;;;;;;59.95;28.52;;;;;;;0.93;70.03;100921.69;5093313;28;20051;-79
2022/03/13 00:08:16;;;;;;;59.58;27.40;;;;;;;0.88;70.19;100907.50;5094260;28;20073;-81
2022/03/13 00:10:50;;;;;;;59.13;27.63;;;;;;;0.91;70.17;100908.41;5094508;28;20047;-80
2022/03/13 00:13:21;;;;;;;62.15;27.67;;;;;;;0.94;70.52;100924.38;5094410;28;20039;-80
2022/03/13 00:15:51;;;;;;;60.72;29.15;;;;;;;0.91;70.56;100912.84;5098607;28;20081;-80
2022/03/13 00:18:19;;;;;;;56.40;26.65;;;;;;;0.93;69.61;100916.38;5108728;27;20050;-79
2022/03/13 00:20:47;;;;;;;58.92;27.88;;;;;;;0.99;69.00;100911.97;5100982;28;20048;-79
2022/03/13 00:23:16;;;;;;;53.85;27.63;;;;;;;1.00;68.99;100912.84;5113536;28;20482;-79
2022/03/13 00:25:44;;;;;;;60.20;27.77;;;;;;;1.03;68.64;100911.97;5106146;27;20044;-80
2022/03/13 00:28:12;;;;;;;60.88;28.17;;;;;;;1.05;68.18;100910.19;5093054;28;20048;-78
2022/03/13 00:30:40;;;;;;;53.03;26.70;;;;;;;1.05;68.15;100905.75;5093127;28;20495;-79
2022/03/13 00:33:08;;;;;;;58.25;27.65;;;;;;;1.06;68.62;100906.63;5092781;28;20078;-80
2022/03/13 00:35:38;;;;;;;55.53;27.65;;;;;;;1.07;68.86;100904.00;5092949;28;20051;-78
2022/03/13 00:38:05;;;;;;;61.25;27.08;;;;;;;1.06;68.17;100903.97;5092891;28;20486;-78
2022/03/13 00:40:34;;;;;;;52.72;26.50;;;;;;;1.09;68.44;100896.00;5092970;28;20051;-80
2022/03/13 00:43:02;;;;;;;59.03;27.42;;;;;;;1.12;68.71;100896.88;5092814;28;20055;-79
2022/03/13 00:45:30;;;;;;;54.10;26.58;;;;;;;1.09;68.74;100896.00;5092968;28;20051;-80
2022/03/13 00:47:57;;;;;;;56.50;26.58;;;;;;;1.08;68.85;100894.22;5092542;28;20055;-77
2022/03/13 00:50:25;;;;;;;55.72;24.98;;;;;;;1.09;68.84;100901.31;5093032;28;20048;-79
2022/03/13 00:52:53;;;;;;;52.55;25.63;;;;;;;1.11;68.68;100888.88;5092733;28;20047;-78
2022/03/13 00:55:21;;;;;;;50.72;25.98;;;;;;;1.11;69.09;100896.88;5092885;28;20070;-82
2022/03/13 00:57:50;;;;;;;53.13;25.30;;;;;;;1.17;68.60;100891.53;5092788;28;20048;-81
2022/03/13 01:00:18;;;;;;;51.92;25.25;;;;;;;1.09;68.73;100891.56;5092431;28;20105;-81
2022/03/13 01:02:45;;;;;;;51.85;25.75;;;;;;;1.08;69.15;100889.78;5092694;28;20471;-80
2022/03/13 01:05:23;;;;;;;55.10;26.40;;;;;;;1.10;68.45;100890.69;5092653;28;20384;-80
2022/03/13 01:07:51;;;;;;;56.38;26.10;;;;;;;1.14;68.77;100886.22;5100657;28;20050;-81
2022/03/13 01:10:18;;;;;;;52.25;25.40;;;;;;;1.15;68.67;100883.56;5112741;28;20047;-81
2022/03/13 01:12:46;;;;;;;56.92;26.23;;;;;;;1.07;69.03;100888.03;5112897;27;20047;-80
2022/03/13 01:15:15;;;;;;;53.30;25.52;;;;;;;1.06;69.08;100880.03;5112751;28;20482;-82
2022/03/13 01:17:43;;;;;;;52.17;25.73;;;;;;;1.10;69.02;100876.47;5112688;27;20101;-81
2022/03/13 01:20:16;;;;;;;52.42;25.17;;;;;;;1.10;68.31;100872.06;5112949;27;20047;-79
2022/03/13 01:22:45;;;;;;;51.70;25.23;;;;;;;1.01;69.36;100878.25;5108937;28;20047;-82
2022/03/13 01:25:13;;;;;;;50.70;25.88;;;;;;;1.03;68.70;100870.28;5101235;28;20411;-83
2022/03/13 01:27:40;;;;;;;56.72;25.40;;;;;;;1.11;68.25;100863.19;5113150;27;20039;-82
2022/03/13 01:30:09;;;;;;;50.28;24.67;;;;;;;1.13;68.48;100865.81;5114174;27;20047;-81
2022/03/13 01:32:38;;;;;;;55.03;24.58;;;;;;;1.06;68.69;100854.31;5116705;28;20047;-82
2022/03/13 01:35:06;;;;;;;51.20;23.60;;;;;;;1.03;69.77;100859.66;5116364;27;20499;-81
2022/03/13 01:37:35;;;;;;;58.78;26.02;;;;;;;1.05;70.39;100856.97;5116727;27;20047;-79
2022/03/13 01:40:05;;;;;;;48.95;24.20;;;;;;;1.07;68.92;100861.41;5116371;27;20054;-81
2022/03/13 01:42:33;;;;;;;49.80;23.90;;;;;;;1.08;68.94;100870.25;5117873;27;20384;-82
2022/03/13 01:45:01;;;;;;;56.08;25.27;;;;;;;0.97;70.34;100863.19;5101326;27;20052;-80
2022/03/13 01:47:28;;;;;;;49.58;25.20;;;;;;;1.03;70.51;100869.38;5096004;28;20048;-77
2022/03/13 01:49:57;;;;;;;52.67;24.92;;;;;;;1.03;70.34;100867.63;5096126;28;20051;-80
2022/03/13 01:52:27;;;;;;;49.22;24.73;;;;;;;1.03;69.94;100864.97;5095974;28;20513;-81
2022/03/13 01:54:56;;;;;;;52.13;25.02;;;;;;;0.98;71.17;100859.63;5095899;28;20502;-80
2022/03/13 01:57:25;;;;;;;49.22;24.48;;;;;;;1.02;71.69;100860.53;5095721;28;20044;-81
2022/03/13 01:59:56;;;;;;;48.20;24.58;;;;;;;1.02;70.78;100857.88;5095565;28;20070;-81
2022/03/13 02:02:25;;;;;;;48.83;24.63;;;;;;;0.95;71.20;100862.28;5096156;28;20079;-80
2022/03/13 02:04:53;;;;;;;44.45;23.65;;;;;;;0.99;71.66;100847.19;5116070;27;20043;-79
2022/03/13 02:07:23;;;;;;;48.22;24.02;;;;;;;0.99;71.80;100857.84;5095835;28;20104;-80
2022/03/13 02:09:51;;;;;;;49.58;23.98;;;;;;;0.95;71.60;100859.63;5095879;28;20106;-82
2022/03/13 02:12:20;;;;;;;51.92;24.33;;;;;;;0.94;71.30;100849.88;5115762;28;20048;-82
2022/03/13 02:14:48;;;;;;;47.25;23.25;;;;;;;0.91;71.11;100859.63;5115514;27;20039;-81
2022/03/13 02:17:25;;;;;;;54.90;24.42;;;;;;;0.97;71.06;100870.25;5115783;27;20421;-82
2022/03/13 02:19:54;;;;;;;53.90;24.55;;;;;;;1.00;70.74;100862.28;5117499;27;20414;-80
2022/03/13 02:22:23;;;;;;;49.20;23.08;;;;;;;0.97;70.68;100870.25;5112329;27;20052;-81
2022/03/13 02:24:53;;;;;;;56.75;25.25;;;;;;;0.99;70.34;100864.06;5095082;28;20490;-82
2022/03/13 02:27:22;;;;;;;53.97;24.52;;;;;;;0.99;69.43;100868.47;5094970;28;20039;-80
2022/03/13 02:29:50;;;;;;;56.88;24.13;;;;;;;0.97;69.10;100864.94;5095255;28;20051;-79
2022/03/13 02:32:19;;;;;;;46.78;22.50;;;;;;;0.95;69.08;100867.63;5095247;28;20044;-81
2022/03/13 02:34:47;;;;;;;40.70;21.63;;;;;;;0.95;68.76;100867.63;5094972;28;20505;-81
2022/03/13 02:37:25;;;;;;;39.92;21.05;;;;;;;0.91;68.63;100870.28;5095009;28;20119;-81
2022/03/13 02:39:54;;;;;;;43.67;21.05;;;;;;;0.95;68.37;100874.69;5095013;28;20055;-81
2022/03/13 02:42:21;;;;;;;41.95;20.63;;;;;;;1.00;68.96;100870.25;5094129;28;20478;-77
2022/03/13 02:44:49;;;;;;;49.55;20.33;;;;;;;0.99;68.26;100871.16;5095263;28;20053;-83
2022/03/13 02:47:17;;;;;;;50.28;24.20;;;;;;;1.02;67.39;100871.19;5104891;28;20071;-83
2022/03/13 02:49:44;;;;;;;42.08;20.83;;;;;;;0.97;67.69;100872.94;5115658;27;20052;-84
2022/03/13 02:52:11;;;;;;;41.33;20.33;;;;;;;0.94;67.87;100871.16;5115253;28;20065;-80
2022/03/13 02:54:39;;;;;;;47.58;20.90;;;;;;;0.98;67.73;100877.34;5115525;27;20040;-82
2022/03/13 02:57:08;;;;;;;46.10;21.55;;;;;;;0.97;67.52;100862.28;5115021;27;20040;-80
2022/03/13 02:59:36;;;;;;;42.70;22.23;;;;;;;1.04;67.21;100869.41;5115222;28;20097;-83
2022/03/13 03:02:04;;;;;;;39.15;20.25;;;;;;;0.99;66.10;100868.47;5108141;27;20044;-82
2022/03/13 03:04:32;;;;;;;41.10;20.73;;;;;;;0.98;66.36;100872.03;5095078;28;20048;-78
2022/03/13 03:07:01;;;;;;;43.05;20.27;;;;;;;0.96;66.35;100866.72;5094943;28;20040;-82
2022/03/13 03:09:32;;;;;;;44.17;21.13;;;;;;;0.95;66.91;100870.28;5094652;28;20098;-82
2022/03/13 03:12:04;;;;;;;40.05;19.85;;;;;;;0.97;67.61;100862.28;5095076;28;20523;-82
2022/03/13 03:14:34;;;;;;;40.00;20.17;;;;;;;0.98;67.82;100867.63;5095805;28;20036;-81
2022/03/13 03:17:02;;;;;;;42.70;20.25;;;;;;;0.92;68.45;100867.63;5094567;28;20056;-82
2022/03/13 03:19:30;;;;;;;37.67;19.65;;;;;;;0.93;69.12;100869.41;5094411;28;20510;-82
2022/03/13 03:21:58;;;;;;;40.03;20.45;;;;;;;1.00;69.06;100878.25;5094189;28;20479;-82
2022/03/13 03:24:26;;;;;;;42.22;19.98;;;;;;;0.97;68.07;100870.25;5094357;28;20054;-83
2022/03/13 03:26:54;;;;;;;41.22;19.58;;;;;;;1.01;69.13;100872.94;5093734;28;20133;-83
2022/03/13 03:29:22;;;;;;;41.67;19.13;;;;;;;0.96;68.20;100873.81;5094139;28;20040;-82
2022/03/13 03:31:51;;;;;;;41.08;20.13;;;;;;;0.98;67.82;100872.94;5094249;28;20043;-82
2022/03/13 03:34:20;;;;;;;36.95;18.92;;;;;;;0.98;67.97;100874.69;5094161;28;20062;-81
2022/03/13 03:36:50;;;;;;;36.70;19.38;;;;;;;1.00;67.46;100873.81;5093920;28;20048;-82
2022/03/13 03:39:19;;;;;;;37.65;20.20;;;;;;;1.01;68.42;100874.69;5093963;28;20055;-81
2022/03/13 03:41:47;;;;;;;38.80;19.67;;;;;;;1.05;67.69;100876.50;5093834;28;20101;-84
2022/03/13 03:44:16;;;;;;;35.72;18.88;;;;;;;1.04;67.52;100876.47;5105862;28;20418;-81
2022/03/13 03:46:45;;;;;;;40.63;19.77;;;;;;;1.02;66.92;100873.84;5114223;28;20432;-82
2022/03/13 03:49:14;;;;;;;40.33;19.52;;;;;;;1.03;66.41;100875.59;5114348;27;20044;-81
2022/03/13 03:51:43;;;;;;;38.72;20.02;;;;;;;1.00;66.58;100872.91;5114024;28;20532;-81
2022/03/13 03:54:11;;;;;;;37.95;19.40;;;;;;;1.04;67.17;100877.38;5101891;27;20040;-80
2022/03/13 03:56:39;;;;;;;39.40;19.70;;;;;;;1.04;66.95;100879.13;5097900;28;20047;-81
2022/03/13 03:59:07;;;;;;;38.42;19.65;;;;;;;1.01;67.86;100883.56;5107985;28;20051;-81
2022/03/13 04:01:38;;;;;;;39.83;20.33;;;;;;;1.01;67.76;100882.66;5104191;27;20093;-80
2022/03/13 04:04:07;;;;;;;43.05;20.13;;;;;;;0.97;68.34;100879.16;5098302;28;20067;-80
2022/03/13 04:06:38;;;;;;;41.70;19.52;;;;;;;0.92;68.78;100880.03;5097711;28;20047;-81
2022/03/13 04:09:06;;;;;;;37.47;18.98;;;;;;;0.83;69.36;100884.47;5101591;28;20112;-79
2022/03/13 04:11:34;;;;;;;37.00;20.15;;;;;;;0.80;70.30;100888.88;5101844;28;20141;-78
2022/03/13 04:14:02;;;;;;;37.67;19.20;;;;;;;0.83;69.51;100884.47;5101963;28;20039;-80
2022/03/13 04:16:29;;;;;;;38.88;19.98;;;;;;;0.76;69.10;100887.09;5101797;28;20044;-81
2022/03/13 04:18:57;;;;;;;42.45;20.65;;;;;;;0.72;68.93;100892.44;5101738;28;20071;-82
2022/03/13 04:21:24;;;;;;;37.50;19.10;;;;;;;0.74;69.15;100894.19;5101728;28;20040;-80
2022/03/13 04:23:53;;;;;;;40.88;20.40;;;;;;;0.74;68.84;100883.56;5105634;28;20437;-79
2022/03/13 04:26:22;;;;;;;40.92;19.67;;;;;;;0.72;68.20;100891.56;5105747;28;20093;-82
2022/03/13 04:28:50;;;;;;;36.80;19.30;;;;;;;0.74;68.26;100895.09;5105760;28;20410;-81
2022/03/13 04:31:18;;;;;;;37.40;19.65;;;;;;;0.71;67.91;100897.75;5107456;28;20047;-81
2022/03/13 04:33:47;;;;;;;35.90;18.77;;;;;;;0.81;66.57;100898.63;5108968;27;20063;-79
2022/03/13 04:36:15;;;;;;;41.03;20.13;;;;;;;0.78;67.05;100888.91;5112382;27;20047;-80
2022/03/13 04:38:43;;;;;;;37.67;19.25;;;;;;;0.81;66.41;100893.31;5093546;28;20044;-83
2022/03/13 04:41:12;;;;;;;37.83;19.65;;;;;;;0.74;65.69;100908.41;5113409;27;20179;-81
2022/03/13 04:43:40;;;;;;;36.60;18.80;;;;;;;0.71;66.10;100903.94;5113536;28;20039;-81
2022/03/13 04:46:08;;;;;;;35.33;18.73;;;;;;;0.69;66.58;100903.06;5093093;28;20046;-81
2022/03/13 04:48:35;;;;;;;40.67;20.40;;;;;;;0.57;65.72;100903.91;5113246;28;20044;-82
2022/03/13 04:51:03;;;;;;;39.70;19.83;;;;;;;0.50;66.73;100907.47;5113533;27;20043;-80
2022/03/13 04:53:31;;;;;;;37.38;19.52;;;;;;;0.53;67.31;100902.16;5112936;27;20043;-82
2022/03/13 04:55:58;;;;;;;35.13;19.65;;;;;;;0.40;66.69;100913.66;5113718;27;20498;-83
2022/03/13 04:58:28;;;;;;;44.38;19.55;;;;;;;0.36;67.07;100909.22;5096794;27;20070;-83
2022/03/13 05:00:55;;;;;;;36.50;19.55;;;;;;;0.36;67.39;100915.41;5100521;27;20047;-83
2022/03/13 05:03:23;;;;;;;41.53;20.75;;;;;;;0.32;67.05;100916.28;5100431;27;20044;-83
2022/03/13 05:05:50;;;;;;;43.45;22.20;;;;;;;0.35;67.39;100918.06;5103126;28;20052;-83
2022/03/13 05:08:18;;;;;;;47.28;23.42;;;;;;;0.27;67.16;100926.00;5117054;27;20040;-83
2022/03/13 05:10:47;;;;;;;45.85;22.67;;;;;;;0.29;67.16;100926.91;5108683;27;20051;-83
2022/03/13 05:13:16;;;;;;;37.85;20.50;;;;;;;0.33;67.34;100925.16;5108441;27;20047;-82
2022/03/13 05:15:46;;;;;;;51.17;26.25;;;;;;;0.31;67.18;100937.56;5116978;27;20051;-75
2022/03/13 05:18:14;;;;;;;38.25;19.83;;;;;;;0.33;66.87;100931.34;5117465;27;20387;-83
2022/03/13 05:20:42;;;;;;;40.58;20.05;;;;;;;0.30;67.18;100936.66;5101402;27;20048;-80
2022/03/13 05:23:09;;;;;;;43.75;23.90;;;;;;;0.21;67.68;100939.28;5104738;28;20047;-83
2022/03/13 05:25:38;;;;;;;41.13;21.25;;;;;;;0.32;67.36;100945.50;5100462;28;20052;-83
2022/03/13 05:28:08;;;;;;;41.83;21.40;;;;;;;0.31;67.63;100943.72;5111615;28;20050;-84
2022/03/13 05:30:35;;;;;;;38.38;21.33;;;;;;;0.34;67.63;100942.88;5116300;27;20047;-84
2022/03/13 05:33:05;;;;;;;38.92;20.00;;;;;;;0.31;67.72;100953.50;5111669;28;20044;-84
2022/03/13 05:35:33;;;;;;;39.13;21.05;;;;;;;0.35;67.06;100955.28;5100369;28;20114;-81
2022/03/13 05:38:00;;;;;;;42.03;21.63;;;;;;;0.39;67.22;100954.41;5109066;28;20048;-82
2022/03/13 05:40:28;;;;;;;39.95;21.33;;;;;;;0.38;67.85;100953.50;5116176;27;20055;-80
2022/03/13 05:42:58;;;;;;;43.97;21.55;;;;;;;0.49;67.14;100961.50;5116393;27;20052;-82
2022/03/13 05:45:27;;;;;;;52.28;21.48;;;;;;;0.56;66.55;100958.00;5116036;27;20477;-81
2022/03/13 05:47:55;;;;;;;40.90;21.23;;;;;;;0.62;66.77;100959.78;5109033;27;20051;-74
2022/03/13 05:50:26;;;;;;;43.25;20.75;;;;;;;0.62;67.14;100962.44;5111002;28;20058;-84
2022/03/13 05:52:55;;;;;;;43.20;22.45;;;;;;;0.72;66.38;100966.03;5104978;28;20048;-80
2022/03/13 05:55:25;;;;;;;46.13;23.42;;;;;;;0.60;67.08;100965.97;5095593;28;20070;-80
2022/03/13 05:57:54;;;;;;;40.45;21.25;;;;;;;0.90;65.49;100973.16;5100173;28;20047;-79
2022/03/13 06:00:23;;;;;;;40.28;21.35;;;;;;;0.99;64.19;100970.50;5095802;28;20055;-77
2022/03/13 06:02:50;;;;;;;59.85;28.63;;;;;;;1.06;64.12;100967.84;5109675;28;20040;-80
2022/03/13 06:05:19;;;;;;;115.90;51.67;;;;;;;1.09;64.27;100976.72;5105354;27;20044;-80
2022/03/13 06:07:48;;;;;;;180.15;86.22;;;;;;;1.18;64.29;100983.81;5105486;28;20494;-80
2022/03/13 06:10:16;;;;;;;290.17;119.82;;;;;;;1.33;63.04;100977.59;5106364;27;20434;-76
2022/03/13 06:12:44;;;;;;;150.77;71.70;;;;;;;1.31;63.66;100984.72;5095523;28;20044;-75
2022/03/13 06:15:13;;;;;;;103.95;43.10;;;;;;;1.39;64.09;100985.59;5106123;28;20423;-77
2022/03/13 06:17:41;;;;;;;56.25;26.65;;;;;;;1.46;63.25;100986.47;5103958;27;20051;-75
2022/03/13 06:20:10;;;;;;;41.22;20.48;;;;;;;1.56;63.04;100982.03;5103394;28;20051;-78
2022/03/13 06:22:38;;;;;;;39.20;20.48;;;;;;;1.51;63.84;100983.84;5098524;28;20108;-78
2022/03/13 06:25:10;;;;;;;36.08;18.92;;;;;;;1.67;63.13;100988.25;5104828;27;20482;-78
2022/03/13 06:27:38;;;;;;;37.35;18.25;;;;;;;1.73;62.79;100996.22;5107974;28;20486;-81
2022/03/13 06:30:12;;;;;;;31.55;17.17;;;;;;;1.76;62.94;100992.69;5100043;27;20048;-79
2022/03/13 06:32:40;;;;;;;35.97;19.50;;;;;;;1.83;63.02;100993.53;5094316;28;20078;-76
2022/03/13 06:35:09;;;;;;;31.98;17.13;;;;;;;1.81;61.98;100997.97;5095307;27;20459;-76
2022/03/13 06:37:37;;;;;;;31.48;16.65;;;;;;;1.83;62.10;100996.19;5091788;28;20040;-75
2022/03/13 06:40:10;;;;;;;37.65;20.10;;;;;;;1.90;61.33;100999.75;5091692;28;20052;-77
2022/03/13 06:42:38;;;;;;;33.13;17.27;;;;;;;2.14;61.29;100997.03;5098280;28;20047;-76
2022/03/13 06:45:10;;;;;;;31.25;16.27;;;;;;;2.15;60.90;100997.91;5106903;27;20406;-76
2022/03/13 06:47:38;;;;;;;28.85;15.20;;;;;;;2.19;61.67;101002.31;5099606;27;20059;-77
2022/03/13 06:50:07;;;;;;;30.25;15.73;;;;;;;2.21;60.83;101005.00;5093805;28;20039;-76
2022/03/13 06:52:35;;;;;;;30.23;16.20;;;;;;;2.21;60.82;101019.22;5104810;28;20044;-77
2022/03/13 06:55:03;;;;;;;29.95;15.82;;;;;;;2.15;61.26;101014.81;5094990;28;20101;-74
2022/03/13 06:57:32;;;;;;;46.15;24.15;;;;;;;2.37;61.53;101019.19;5100564;28;20055;-79
2022/03/13 07:00:00;;;;;;;41.65;21.45;;;;;;;2.45;61.26;101020.94;5111638;27;20058;-77
2022/03/13 07:02:28;;;;;;;37.10;19.25;;;;;;;2.49;61.20;101015.59;5102366;27;20086;-76
2022/03/13 07:04:55;;;;;;;33.85;16.70;;;;;;;2.60;60.87;101016.41;5090950;28;20355;-77
2022/03/13 07:07:23;;;;;;;31.33;17.20;;;;;;;2.61;61.24;101024.38;5090792;28;20045;-76
2022/03/13 07:09:51;;;;;;;31.58;15.38;;;;;;;2.86;60.65;101018.94;5095434;28;20502;-77
2022/03/13 07:12:19;;;;;;;34.28;17.63;;;;;;;2.85;61.00;101013.59;5097233;28;20071;-76
2022/03/13 07:14:48;;;;;;;27.05;14.88;;;;;;;2.82;60.47;101022.53;5095374;28;20048;-77
2022/03/13 07:17:16;;;;;;;25.90;13.02;;;;;;;2.92;60.21;101019.78;5094841;28;20048;-78
2022/03/13 07:19:45;;;;;;;23.77;12.45;;;;;;;2.83;60.34;101032.31;5098636;28;20044;-79
2022/03/13 07:22:13;;;;;;;26.92;13.65;;;;;;;2.79;61.16;101033.22;5099481;28;20097;-76
2022/03/13 07:24:41;;;;;;;26.77;13.77;;;;;;;2.97;60.92;101031.34;5099245;28;20055;-75
2022/03/13 07:27:09;;;;;;;26.35;13.95;;;;;;;3.08;60.30;101028.59;5098977;28;20530;-80
2022/03/13 07:29:37;;;;;;;29.48;13.43;;;;;;;2.96;59.98;101026.88;5101491;28;20566;-78
2022/03/13 07:32:06;;;;;;;24.80;13.93;;;;;;;3.07;60.24;101027.72;5110869;27;20048;-77
2022/03/13 07:34:34;;;;;;;26.38;13.80;;;;;;;3.10;60.65;101038.38;5098128;27;20066;-77
2022/03/13 07:37:02;;;;;;;25.27;13.00;;;;;;;3.32;60.17;101043.56;5094871;28;20044;-81
2022/03/13 07:39:29;;;;;;;31.70;16.58;;;;;;;3.46;59.21;101036.31;5100157;28;20055;-79
2022/03/13 07:41:57;;;;;;;36.65;18.17;;;;;;;3.33;59.26;101037.31;5110020;27;20048;-76
2022/03/13 07:44:25;;;;;;;96.68;39.63;;;;;;;3.50;58.73;101029.19;5102702;27;20062;-77
2022/03/13 07:46:54;;;;;;;63.00;27.85;;;;;;;3.38;59.29;101038.19;5109730;28;20134;-76
2022/03/13 07:49:23;;;;;;;68.25;28.17;;;;;;;3.64;58.75;101045.09;5092211;27;20048;-80
2022/03/13 07:51:50;;;;;;;39.97;16.63;;;;;;;3.66;58.83;101047.75;5104428;28;20072;-76
2022/03/13 07:54:20;;;;;;;45.08;18.55;;;;;;;3.75;58.07;101053.91;5093640;27;20043;-77
2022/03/13 07:56:48;;;;;;;27.70;13.23;;;;;;;3.64;58.78;101053.13;5107253;27;20035;-83
2022/03/13 07:59:15;;;;;;;29.52;14.07;;;;;;;3.53;59.17;101052.34;5099746;27;20040;-81
2022/03/13 08:01:43;;;;;;;35.30;17.25;;;;;;;3.80;58.86;101055.66;5106977;28;20054;-82
2022/03/13 08:04:11;;;;;;;26.42;14.02;;;;;;;3.74;59.47;101054.81;5109396;28;20522;-78
2022/03/13 08:06:40;;;;;;;22.88;12.80;;;;;;;3.94;58.57;101051.09;5109330;28;20108;-81
2022/03/13 08:09:08;;;;;;;34.55;18.60;;;;;;;3.87;58.81;101052.03;5108568;27;20043;-74
2022/03/13 08:11:38;;;;;;;32.72;17.70;;;;;;;3.73;59.08;101050.38;5101210;27;20619;-80
2022/03/13 08:14:07;;;;;;;32.30;16.95;;;;;;;3.79;58.53;101049.44;5103604;28;20065;-79
2022/03/13 08:16:35;;;;;;;30.25;17.15;;;;;;;3.59;59.81;101058.50;5109380;28;20046;-81
2022/03/13 08:19:03;;;;;;;35.08;17.92;;;;;;;3.52;58.80;101053.22;5109283;27;20090;-74
2022/03/13 08:21:30;;;;;;;36.30;16.70;;;;;;;3.29;60.71;101065.84;5109690;27;20054;-80
2022/03/13 08:23:59;;;;;;;24.85;13.23;;;;;;;3.43;59.68;101063.06;5109053;27;20043;-80
2022/03/13 08:26:27;;;;;;;32.80;16.60;;;;;;;3.39;61.15;101076.47;5109004;27;20498;-75
2022/03/13 08:28:55;;;;;;;25.95;13.80;;;;;;;3.61;60.76;101071.84;5109426;27;20039;-77
2022/03/13 08:31:23;;;;;;;27.67;14.05;;;;;;;3.63;61.35;101073.59;5105305;28;20047;-75
2022/03/13 08:33:51;;;;;;;30.00;16.73;;;;;;;3.79;60.17;101075.25;5108974;27;20062;-79
2022/03/13 08:36:19;;;;;;;24.80;13.20;;;;;;;3.53;60.75;101074.56;5108537;28;20036;-81
2022/03/13 08:38:46;;;;;;;25.08;13.90;;;;;;;3.65;61.03;101076.28;5108199;28;20039;-80
2022/03/13 08:41:15;;;;;;;25.08;13.10;;;;;;;3.43;61.56;101081.75;5109082;28;20753;-80
2022/03/13 08:43:43;;;;;;;20.80;11.07;;;;;;;3.51;61.10;101084.38;5108923;27;20055;-76
2022/03/13 08:46:12;;;;;;;24.38;12.55;;;;;;;3.31;61.37;101084.53;5107544;27;20403;-79
2022/03/13 08:48:40;;;;;;;23.50;12.15;;;;;;;3.58;61.16;101077.22;5099870;28;20058;-73
2022/03/13 08:51:08;;;;;;;22.65;11.35;;;;;;;3.56;61.00;101087.03;5108714;28;20055;-82
2022/03/13 08:53:35;;;;;;;21.70;12.10;;;;;;;3.42;62.15;101088.00;5105951;28;20078;-82
2022/03/13 08:56:03;;;;;;;22.60;11.75;;;;;;;3.48;61.33;101085.31;5108655;28;20528;-78
2022/03/13 08:58:32;;;;;;;20.13;11.05;;;;;;;3.77;60.60;101078.84;5104755;28;20040;-78
2022/03/13 09:01:00;;;;;;;23.73;11.73;;;;;;;3.72;60.85;101086.00;5109124;27;20051;-82
2022/03/13 09:03:28;;;;;;;23.23;12.20;;;;;;;3.62;61.39;101092.34;5109435;27;20047;-83
2022/03/13 09:05:57;;;;;;;22.80;13.25;;;;;;;3.71;61.09;101091.38;5101894;27;20141;-83
2022/03/13 09:08:24;;;;;;;26.73;12.20;;;;;;;3.80;61.08;101095.75;5106070;28;20046;-80
2022/03/13 09:10:53;;;;;;;27.58;14.60;;;;;;;3.93;61.47;101094.75;5100816;27;20040;-82
2022/03/13 09:13:21;;;;;;;20.98;11.85;;;;;;;3.83;61.39;101093.03;5105824;28;20521;-76
2022/03/13 09:15:51;;;;;;;20.70;10.98;;;;;;;4.17;61.05;101087.41;5102597;27;20541;-81
2022/03/13 09:18:18;;;;;;;22.15;10.15;;;;;;;4.38;60.84;101083.59;5109607;27;20151;-81
2022/03/13 09:20:46;;;;;;;18.58;10.70;;;;;;;4.30;59.91;101089.06;5109707;28;20040;-84
2022/03/13 09:23:13;;;;;;;18.48;9.88;;;;;;;4.29;59.19;101089.06;5110082;27;20051;-84
2022/03/13 09:25:41;;;;;;;23.27;12.43;;;;;;;4.49;58.33;101089.75;5098374;27;20036;-83
2022/03/13 09:28:09;;;;;;;28.77;17.73;;;;;;;4.38;58.60;101090.75;5108597;27;20101;-83
2022/03/13 09:30:37;;;;;;;19.63;11.02;;;;;;;4.42;58.67;101096.03;5108539;28;20067;-82
2022/03/13 09:33:06;;;;;;;16.52;8.85;;;;;;;4.16;58.80;101096.31;5105628;27;20047;-85
2022/03/13 09:35:34;;;;;;;16.85;8.23;;;;;;;4.46;58.83;101095.09;5097161;27;20052;-85
2022/03/13 09:38:01;;;;;;;18.38;9.82;;;;;;;4.76;58.62;101098.34;5107955;27;20043;-82
2022/03/13 09:40:29;;;;;;;18.30;9.50;;;;;;;4.92;58.58;101109.75;5103781;28;20050;-80
2022/03/13 09:42:56;;;;;;;17.88;9.43;;;;;;;5.03;57.40;101114.06;5099732;28;20043;-79
2022/03/13 09:45:24;;;;;;;16.38;8.23;;;;;;;4.85;57.63;101108.06;5105008;27;20430;-80
2022/03/13 09:47:52;;;;;;;17.77;9.07;;;;;;;4.93;57.11;101111.53;5092978;28;20051;-83
2022/03/13 09:50:21;;;;;;;17.45;8.75;;;;;;;5.06;56.64;101109.56;5102212;27;20052;-83
2022/03/13 09:52:49;;;;;;;16.55;8.63;;;;;;;5.18;56.63;101110.31;5095616;28;20040;-82
2022/03/13 09:55:17;;;;;;;17.83;8.18;;;;;;;5.25;56.58;101105.75;5095903;28;20048;-80
2022/03/13 09:57:48;;;;;;;20.13;9.13;;;;;;;5.44;56.88;101099.22;5094154;28;20505;-80
2022/03/13 10:00:16;;;;;;;38.38;20.85;;;;;;;5.66;56.69;101101.56;5091761;28;20048;-77
2022/03/13 10:02:45;;;;;;;17.38;8.77;;;;;;;5.75;54.90;101104.09;5098518;28;20051;-75
2022/03/13 10:05:13;;;;;;;21.85;10.25;;;;;;;5.65;54.94;101098.00;5115672;27;20505;-80
2022/03/13 10:07:57;;;;;;;22.10;11.52;;;;;;;5.84;53.91;101105.75;5115314;27;20457;-80
2022/03/13 10:10:27;;;;;;;14.90;7.82;;;;;;;5.58;54.65;101098.13;5117956;28;20044;-78
2022/03/13 10:12:54;;;;;;;18.48;9.07;;;;;;;5.35;54.56;101096.69;5115167;28;20085;-84
2022/03/13 10:15:22;;;;;;;21.48;10.98;;;;;;;5.37;55.14;101094.84;5115430;27;20047;-83
2022/03/13 10:17:49;;;;;;;16.70;8.15;;;;;;;5.24;55.37;101096.81;5114969;28;20510;-75
2022/03/13 10:20:19;;;;;;;15.35;8.15;;;;;;;5.13;56.32;101091.63;5115068;27;20036;-75
2022/03/13 10:22:48;;;;;;;22.08;12.32;;;;;;;5.33;55.01;101095.81;5103103;27;20044;-84
2022/03/13 10:25:29;;;;;;;28.77;16.35;;;;;;;5.34;54.80;101101.16;5114517;27;20046;-78
2022/03/13 10:28:01;;;;;;;16.75;8.18;;;;;;;4.99;55.79;101094.50;5111671;27;20048;-79
2022/03/13 10:30:29;;;;;;;20.25;10.93;;;;;;;5.21;55.06;101102.22;5115177;27;20039;-80
2022/03/13 10:32:57;;;;;;;24.27;14.45;;;;;;;5.58;53.96;101096.31;5107334;27;20039;-84
2022/03/13 10:35:25;;;;;;;22.77;11.73;;;;;;;5.57;54.15;101107.94;5111594;28;20112;-77
2022/03/13 10:37:52;;;;;;;17.13;9.32;;;;;;;5.59;54.32;101108.81;5111726;28;20043;-79
2022/03/13 10:40:23;;;;;;;19.23;9.48;;;;;;;5.70;53.94;101110.44;5110373;27;20093;-81
2022/03/13 10:42:51;;;;;;;19.05;10.60;;;;;;;5.87;54.06;101112.84;5117873;27;20138;-75
2022/03/13 10:45:36;;;;;;;18.35;9.82;;;;;;;5.91;54.11;101117.25;5110635;27;20451;-77
2022/03/13 10:48:21;;;;;;;14.93;7.25;;;;;;;5.68;52.42;101123.88;5111581;28;20050;-77
2022/03/13 10:50:50;;;;;;;15.75;8.23;;;;;;;5.83;52.38;101120.06;5118583;27;20035;-79
2022/03/13 10:53:18;;;;;;;22.27;13.85;;;;;;;6.11;52.20;101111.56;5111252;28;20142;-84
2022/03/13 10:56:01;;;;;;;20.60;11.50;;;;;;;6.23;52.27;101119.41;5110218;27;20035;-84
2022/03/13 10:58:30;;;;;;;18.35;10.90;;;;;;;6.30;52.13;101117.50;5115711;28;20065;-82
2022/03/13 11:01:05;;;;;;;17.13;7.93;;;;;;;6.41;52.15;101120.00;5114022;27;20490;-76
2022/03/13 11:03:34;;;;;;;21.58;10.75;;;;;;;6.44;52.49;101106.50;5113327;27;20126;-83
2022/03/13 11:06:02;;;;;;;14.65;7.43;;;;;;;6.25;51.80;101110.47;5113269;27;20419;-77
2022/03/13 11:08:30;;;;;;;14.38;7.50;;;;;;;6.21;51.33;101105.16;5111909;27;20127;-84
2022/03/13 11:10:59;;;;;;;18.02;8.52;;;;;;;6.23;52.33;101107.78;5102577;27;20048;-82
2022/03/13 11:13:27;;;;;;;13.85;6.90;;;;;;;6.02;52.08;101107.28;5101417;27;20043;-83
2022/03/13 11:15:56;;;;;;;14.90;7.15;;;;;;;5.71;51.73;101113.09;5114114;27;20051;-85
2022/03/13 11:18:32;;;;;;;14.30;7.32;;;;;;;6.20;51.79;101105.16;5113925;27;20052;-76
2022/03/13 11:21:00;;;;;;;24.58;13.50;;;;;;;6.33;51.20;101096.00;5116228;28;20052;-78
2022/03/13 11:23:33;;;;;;;24.65;13.05;;;;;;;6.41;51.60;101097.66;5108750;27;20044;-84